createdAt,value
2022-12-01T00:01:09.381Z,3.70
2022-12-01T00:03:59.110Z,3.60
2022-12-01T00:06:47.505Z,3.60
2022-12-01T00:09:53.139Z,3.60
2022-12-01T00:12:43.546Z,3.50
2022-12-01T00:15:35.598Z,3.60
2022-12-01T00:18:23.934Z,3.60
2022-12-01T00:21:16.866Z,3.50
2022-12-01T00:24:05.651Z,3.50
2022-12-01T00:26:54.022Z,3.50
2022-12-01T00:29:42.314Z,3.50
2022-12-01T00:32:31.203Z,3.60
2022-12-01T00:35:19.727Z,3.60
2022-12-01T00:38:09.465Z,3.60
2022-12-01T00:40:58.247Z,3.70
2022-12-01T00:43:46.588Z,3.70
2022-12-01T00:46:34.957Z,3.60
2022-12-01T00:49:23.293Z,3.60
2022-12-01T00:52:11.615Z,3.60
2022-12-01T00:55:01.249Z,3.60
2022-12-01T00:57:49.608Z,3.60
2022-12-01T01:00:38.918Z,3.60
2022-12-01T01:03:27.360Z,3.50
2022-12-01T01:06:16.578Z,3.50
2022-12-01T01:09:05.092Z,3.50
2022-12-01T01:11:54.888Z,3.60
2022-12-01T01:14:43.199Z,3.50
2022-12-01T01:17:31.515Z,3.60
2022-12-01T01:20:19.893Z,3.60
2022-12-01T01:23:08.230Z,3.60
2022-12-01T01:26:03.039Z,3.60
2022-12-01T01:28:52.845Z,3.60
2022-12-01T01:31:41.205Z,3.60
2022-12-01T01:34:29.538Z,3.50
2022-12-01T01:37:17.952Z,3.50
2022-12-01T01:40:07.715Z,3.50
2022-12-01T01:42:56.116Z,3.50
2022-12-01T01:45:46.121Z,3.50
2022-12-01T01:48:35.581Z,3.40
2022-12-01T01:51:27.616Z,3.40
2022-12-01T01:54:20.204Z,3.50
2022-12-01T01:57:11.044Z,3.50
2022-12-01T02:00:03.535Z,3.50
2022-12-01T02:02:54.366Z,3.50
2022-12-01T02:05:44.956Z,3.50
2022-12-01T02:08:35.918Z,3.50
2022-12-01T02:12:02.748Z,3.50
2022-12-01T02:15:09.829Z,3.50
2022-12-01T02:18:15.684Z,3.50
2022-12-01T02:21:31.070Z,3.50
2022-12-01T02:24:59.053Z,3.50
2022-12-01T02:28:30.990Z,3.50
2022-12-01T02:31:24.907Z,3.60
2022-12-01T02:34:19.072Z,3.50
2022-12-01T02:37:13.487Z,3.50
2022-12-01T02:40:08.791Z,3.50
2022-12-01T02:43:05.482Z,3.60
2022-12-01T02:45:57.471Z,3.60
2022-12-01T02:48:50.367Z,3.60
2022-12-01T02:51:41.210Z,3.60
2022-12-01T02:54:32.335Z,3.60
2022-12-01T02:57:21.379Z,3.70
2022-12-01T03:00:13.807Z,3.60
2022-12-01T03:03:28.133Z,3.60
2022-12-01T03:06:25.437Z,3.60
2022-12-01T03:09:24.889Z,3.60
2022-12-01T03:12:24.525Z,3.60
2022-12-01T03:15:24.594Z,3.60
2022-12-01T03:18:24.463Z,3.60
2022-12-01T03:21:22.831Z,3.60
2022-12-01T03:24:15.018Z,3.60
2022-12-01T03:27:05.390Z,3.60
2022-12-01T03:29:57.499Z,3.60
2022-12-01T03:32:49.473Z,3.60
2022-12-01T03:35:41.859Z,3.60
2022-12-01T03:38:32.238Z,3.60
2022-12-01T03:41:26.371Z,3.60
2022-12-01T03:44:21.624Z,3.60
2022-12-01T03:47:14.997Z,3.60
2022-12-01T03:50:05.117Z,3.60
2022-12-01T03:53:04.555Z,3.60
2022-12-01T03:56:08.387Z,3.50
2022-12-01T03:59:01.161Z,3.50
2022-12-01T04:01:49.688Z,3.50
2022-12-01T04:04:38.177Z,3.50
2022-12-01T04:07:26.550Z,3.50
2022-12-01T04:10:15.020Z,3.50
2022-12-01T04:13:03.747Z,3.50
2022-12-01T04:15:52.576Z,3.50
2022-12-01T04:18:40.910Z,3.50
2022-12-01T04:21:29.270Z,3.50
2022-12-01T04:24:17.774Z,3.50
2022-12-01T04:27:06.117Z,3.50
2022-12-01T04:29:55.816Z,3.50
2022-12-01T04:32:45.300Z,3.60
2022-12-01T04:35:33.686Z,3.60
2022-12-01T04:38:24.981Z,3.50
2022-12-01T04:41:17.333Z,3.50
2022-12-01T04:44:05.930Z,3.50
2022-12-01T04:46:55.765Z,3.50
2022-12-01T04:49:44.132Z,3.50
2022-12-01T04:52:35.405Z,3.50
2022-12-01T04:55:25.691Z,3.50
2022-12-01T04:58:14.093Z,3.50
2022-12-01T05:01:03.184Z,3.50
2022-12-01T05:03:53.069Z,3.50
2022-12-01T05:06:41.588Z,3.50
2022-12-01T05:09:29.934Z,3.50
2022-12-01T05:12:18.246Z,3.50
2022-12-01T05:15:07.737Z,3.50
2022-12-01T05:17:56.083Z,3.50
2022-12-01T05:20:59.988Z,3.60
2022-12-01T05:23:48.328Z,3.50
2022-12-01T05:26:36.671Z,3.50
2022-12-01T05:29:25.033Z,3.50
2022-12-01T05:32:13.345Z,3.50
2022-12-01T05:35:01.633Z,3.50
2022-12-01T05:37:51.310Z,3.50
2022-12-01T05:40:39.835Z,3.50
2022-12-01T05:43:29.682Z,3.50
2022-12-01T05:46:18.352Z,3.50
2022-12-01T05:49:07.575Z,3.50
2022-12-01T05:51:55.916Z,3.50
2022-12-01T05:54:45.707Z,3.50
2022-12-01T05:57:34.426Z,3.40
2022-12-01T06:00:22.926Z,3.50
2022-12-01T06:03:11.317Z,3.50
2022-12-01T06:05:59.646Z,3.50
2022-12-01T06:08:48.021Z,3.50
2022-12-01T06:11:37.831Z,3.50
2022-12-01T06:14:26.116Z,3.50
2022-12-01T06:17:14.498Z,3.50
2022-12-01T06:20:03.160Z,3.60
2022-12-01T06:22:51.489Z,3.60
2022-12-01T06:25:39.783Z,3.60
2022-12-01T06:28:29.458Z,3.60
2022-12-01T06:31:17.844Z,3.60
2022-12-01T06:34:06.248Z,3.60
2022-12-01T06:36:54.576Z,3.60
2022-12-01T06:39:42.961Z,3.60
2022-12-01T06:42:31.649Z,3.60
2022-12-01T06:45:21.608Z,3.60
2022-12-01T06:48:09.925Z,3.60
2022-12-01T06:50:58.803Z,3.60
2022-12-01T06:53:47.322Z,3.50
2022-12-01T06:56:35.642Z,3.50
2022-12-01T06:59:24.779Z,3.50
2022-12-01T07:02:15.005Z,3.50
2022-12-01T07:05:03.413Z,3.50
2022-12-01T07:07:56.378Z,3.50
2022-12-01T07:10:47.626Z,3.50
2022-12-01T07:13:36.297Z,3.50
2022-12-01T07:16:24.669Z,3.50
2022-12-01T07:19:14.412Z,3.50
2022-12-01T07:22:03.077Z,3.40
2022-12-01T07:24:51.474Z,3.40
2022-12-01T07:27:40.113Z,3.40
2022-12-01T07:30:28.781Z,3.40
2022-12-01T07:33:17.161Z,3.40
2022-12-01T07:36:08.436Z,3.40
2022-12-01T07:38:56.621Z,3.40
2022-12-01T07:41:44.932Z,3.40
2022-12-01T07:44:33.353Z,3.40
2022-12-01T07:47:21.738Z,3.40
2022-12-01T07:50:11.158Z,3.30
2022-12-01T07:53:00.817Z,3.40
2022-12-01T07:55:50.383Z,3.40
2022-12-01T07:58:39.123Z,3.40
2022-12-01T08:01:27.577Z,3.40
2022-12-01T08:04:15.944Z,3.50
2022-12-01T08:07:04.729Z,3.50
2022-12-01T08:09:54.414Z,3.50
2022-12-01T08:12:42.696Z,3.50
2022-12-01T08:15:31.113Z,3.50
2022-12-01T08:18:19.494Z,3.50
2022-12-01T08:21:09.463Z,3.50
2022-12-01T08:23:58.904Z,3.60
2022-12-01T08:26:48.655Z,3.60
2022-12-01T08:29:37.256Z,3.60
2022-12-01T08:32:25.637Z,3.60
2022-12-01T08:35:14.168Z,3.60
2022-12-01T08:38:02.549Z,3.60
2022-12-01T08:40:50.891Z,3.60
2022-12-01T08:43:57.105Z,3.60
2022-12-01T08:46:46.583Z,3.50
2022-12-01T08:49:35.432Z,3.60
2022-12-01T08:52:23.832Z,3.60
2022-12-01T08:55:12.219Z,3.60
2022-12-01T08:58:00.613Z,3.60
2022-12-01T09:00:50.250Z,3.60
2022-12-01T09:03:39.772Z,3.60
2022-12-01T09:06:28.084Z,3.60
2022-12-01T09:09:18.304Z,3.60
2022-12-01T09:12:07.559Z,3.60
2022-12-01T09:14:55.830Z,3.60
2022-12-01T09:17:45.485Z,3.60
2022-12-01T09:20:37.514Z,3.60
2022-12-01T09:23:26.601Z,3.50
2022-12-01T09:26:18.650Z,3.50
2022-12-01T09:29:09.313Z,3.60
2022-12-01T09:31:58.344Z,3.60
2022-12-01T09:34:48.075Z,3.70
2022-12-01T09:37:36.431Z,3.70
2022-12-01T09:40:27.435Z,3.70
2022-12-01T09:43:20.820Z,3.70
2022-12-01T09:46:15.014Z,3.80
2022-12-01T09:49:05.059Z,3.80
2022-12-01T09:51:56.088Z,3.90
2022-12-01T09:54:44.672Z,3.80
2022-12-01T09:57:36.599Z,3.90
2022-12-01T10:00:26.814Z,3.90
2022-12-01T10:03:24.000Z,3.90
2022-12-01T10:06:32.304Z,3.90
2022-12-01T10:09:27.911Z,3.90
2022-12-01T10:12:19.041Z,4.00
2022-12-01T10:15:27.019Z,4.00
2022-12-01T10:18:29.036Z,4.00
2022-12-01T10:21:40.904Z,4.00
2022-12-01T10:24:46.685Z,4.00
2022-12-01T10:27:49.053Z,4.00
2022-12-01T10:30:44.523Z,3.90
2022-12-01T10:33:36.859Z,4.00
2022-12-01T10:36:26.100Z,3.90
2022-12-01T10:39:18.924Z,4.00
2022-12-01T10:42:13.613Z,4.00
2022-12-01T10:45:04.177Z,4.00
2022-12-01T10:48:13.086Z,4.10
2022-12-01T10:51:17.039Z,4.10
2022-12-01T10:54:11.594Z,4.20
2022-12-01T10:57:00.559Z,4.20
2022-12-01T10:59:53.805Z,4.20
2022-12-01T11:02:44.960Z,4.20
2022-12-01T11:05:38.746Z,4.20
2022-12-01T11:08:34.985Z,4.20
2022-12-01T11:11:29.959Z,4.20
2022-12-01T11:14:20.682Z,4.20
2022-12-01T11:17:32.192Z,4.20
2022-12-01T11:20:29.900Z,4.20
2022-12-01T11:23:28.284Z,4.20
2022-12-01T11:26:20.783Z,4.20
2022-12-01T11:29:28.645Z,4.20
2022-12-01T11:32:21.800Z,4.10
2022-12-01T11:35:21.070Z,4.10
2022-12-01T11:38:34.625Z,4.10
2022-12-01T11:41:30.686Z,4.10
2022-12-01T11:44:50.966Z,4.10
2022-12-01T11:47:29.860Z,4.10
2022-12-01T11:50:27.589Z,4.10
2022-12-01T11:53:28.273Z,4.00
2022-12-01T11:56:24.637Z,4.10
2022-12-01T11:59:16.671Z,4.00
2022-12-01T12:02:19.224Z,4.00
2022-12-01T12:06:18.166Z,4.00
2022-12-01T12:09:39.051Z,4.00
2022-12-01T12:12:46.815Z,4.10
2022-12-01T12:15:43.142Z,4.10
2022-12-01T12:18:47.275Z,4.10
2022-12-01T12:21:43.127Z,4.10
2022-12-01T12:24:49.775Z,4.10
2022-12-01T12:27:49.454Z,4.10
2022-12-01T12:30:42.660Z,4.10
2022-12-01T12:33:50.214Z,4.10
2022-12-01T12:36:48.019Z,4.00
2022-12-01T12:40:10.458Z,4.00
2022-12-01T12:43:21.390Z,4.00
2022-12-01T12:46:13.002Z,4.00
2022-12-01T12:49:21.039Z,4.00
2022-12-01T12:52:13.976Z,4.10
2022-12-01T12:55:12.331Z,4.10
2022-12-01T12:58:11.111Z,4.10
2022-12-01T13:01:06.182Z,4.10
2022-12-01T13:04:00.119Z,4.10
2022-12-01T13:06:52.898Z,4.10
2022-12-01T13:09:44.879Z,4.10
2022-12-01T13:12:40.008Z,4.00
2022-12-01T13:15:30.602Z,4.10
2022-12-01T13:18:29.005Z,4.10
2022-12-01T13:21:20.326Z,4.10
2022-12-01T13:24:11.691Z,4.10
2022-12-01T13:27:01.480Z,4.10
2022-12-01T13:29:53.427Z,4.20
2022-12-01T13:32:43.125Z,4.10
2022-12-01T13:35:33.557Z,4.10
2022-12-01T13:38:25.794Z,4.00
2022-12-01T13:41:24.368Z,4.00
2022-12-01T13:44:23.990Z,4.00
2022-12-01T13:47:33.619Z,4.00
2022-12-01T13:50:56.937Z,4.00
2022-12-01T13:54:04.844Z,4.00
2022-12-01T13:57:05.732Z,4.00
2022-12-01T14:00:24.038Z,3.90
2022-12-01T14:03:40.590Z,3.90
2022-12-01T14:06:38.446Z,3.90
2022-12-01T14:09:32.513Z,3.90
2022-12-01T14:12:24.945Z,3.90
2022-12-01T14:15:42.557Z,3.90
2022-12-01T14:18:36.713Z,3.90
2022-12-01T14:21:47.796Z,3.80
2022-12-01T14:24:38.413Z,3.80
2022-12-01T14:27:37.743Z,3.70
2022-12-01T14:31:03.655Z,3.70
2022-12-01T14:33:54.986Z,3.70
2022-12-01T14:36:45.257Z,3.70
2022-12-01T14:39:36.367Z,3.70
2022-12-01T14:42:48.729Z,3.60
2022-12-01T14:45:42.406Z,3.70
2022-12-01T14:48:38.535Z,3.70
2022-12-01T14:51:29.171Z,3.60
2022-12-01T14:54:24.926Z,3.60
2022-12-01T14:57:17.445Z,3.60
2022-12-01T15:00:11.019Z,3.60
2022-12-01T15:03:03.899Z,3.60
2022-12-01T15:05:53.265Z,3.60
2022-12-01T15:08:49.120Z,3.60
2022-12-01T15:11:53.557Z,3.50
2022-12-01T15:14:49.529Z,3.50
2022-12-01T15:17:38.092Z,3.50
2022-12-01T15:20:32.435Z,3.50
2022-12-01T15:23:20.871Z,3.50
2022-12-01T15:26:19.908Z,3.50
2022-12-01T15:29:17.763Z,3.50
2022-12-01T15:32:08.898Z,3.50
2022-12-01T15:35:01.823Z,3.50
2022-12-01T15:37:51.815Z,3.50
2022-12-01T15:43:56.792Z,3.50
2022-12-01T15:46:46.510Z,3.50
2022-12-01T15:49:40.337Z,3.50
2022-12-01T15:52:29.323Z,3.50
2022-12-01T15:55:29.777Z,3.50
2022-12-01T15:58:25.244Z,3.50
2022-12-01T16:01:16.242Z,3.50
2022-12-01T16:04:08.673Z,3.50
2022-12-01T16:07:00.266Z,3.50
2022-12-01T16:09:57.936Z,3.50
2022-12-01T16:12:46.309Z,3.50
2022-12-01T16:15:44.124Z,3.50
2022-12-01T16:18:34.000Z,3.50
2022-12-01T16:21:24.379Z,3.50
2022-12-01T16:24:17.202Z,3.40
2022-12-01T16:27:07.628Z,3.40
2022-12-01T16:29:57.844Z,3.40
2022-12-01T16:32:46.233Z,3.40
2022-12-01T16:35:35.124Z,3.30
2022-12-01T16:38:28.336Z,3.40
2022-12-01T16:41:18.986Z,3.40
2022-12-01T16:44:29.295Z,3.40
2022-12-01T16:47:18.319Z,3.30
2022-12-01T16:50:07.613Z,3.40
2022-12-01T16:52:55.934Z,3.40
2022-12-01T16:55:49.288Z,3.30
2022-12-01T16:58:37.669Z,3.30
2022-12-01T17:01:26.098Z,3.30
2022-12-01T17:04:14.487Z,3.30
2022-12-01T17:07:06.121Z,3.30
2022-12-01T17:09:54.444Z,3.30
2022-12-01T17:12:44.194Z,3.20
2022-12-01T17:15:32.640Z,3.20
2022-12-01T17:18:23.276Z,3.20
2022-12-01T17:21:12.487Z,3.10
2022-12-01T17:24:00.862Z,3.10
2022-12-01T17:26:49.236Z,3.00
2022-12-01T17:29:43.089Z,3.00
2022-12-01T17:32:38.449Z,3.00
2022-12-01T17:35:26.828Z,3.00
2022-12-01T17:38:15.152Z,3.00
2022-12-01T17:41:05.705Z,3.00
2022-12-01T17:43:54.307Z,3.00
2022-12-01T17:46:44.106Z,3.00
2022-12-01T17:49:32.903Z,3.00
2022-12-01T17:52:26.673Z,2.90
2022-12-01T17:55:16.796Z,2.90
2022-12-01T17:58:09.514Z,3.00
2022-12-01T18:00:57.836Z,3.00
2022-12-01T18:03:56.893Z,3.00
2022-12-01T18:06:47.991Z,3.00
2022-12-01T18:09:40.899Z,2.90
2022-12-01T18:12:29.576Z,2.90
2022-12-01T18:15:18.741Z,2.90
2022-12-01T18:18:07.123Z,2.90
2022-12-01T18:20:56.936Z,2.90
2022-12-01T18:23:50.068Z,2.90
2022-12-01T18:26:40.485Z,2.90
2022-12-01T18:29:29.044Z,2.90
2022-12-01T18:32:17.780Z,2.80
2022-12-01T18:35:07.972Z,2.90
2022-12-01T18:37:57.704Z,2.80
2022-12-01T18:40:46.002Z,2.80
2022-12-01T18:43:35.078Z,2.80
2022-12-01T18:46:23.773Z,2.80
2022-12-01T18:49:13.377Z,2.70
2022-12-01T18:52:03.630Z,2.70
2022-12-01T18:54:54.929Z,2.80
2022-12-01T18:57:43.145Z,2.70
2022-12-01T19:00:31.682Z,2.80
2022-12-01T19:03:20.119Z,2.80
2022-12-01T19:06:09.893Z,2.80
2022-12-01T19:09:01.569Z,2.80
2022-12-01T19:11:58.800Z,2.80
2022-12-01T19:14:47.287Z,2.80
2022-12-01T19:17:35.734Z,2.80
2022-12-01T19:20:24.041Z,2.80
2022-12-01T19:23:12.368Z,2.80
2022-12-01T19:26:04.959Z,2.80
2022-12-01T19:28:54.781Z,2.80
2022-12-01T19:31:43.127Z,2.80
2022-12-01T19:34:31.543Z,2.80
2022-12-01T19:37:20.036Z,2.80
2022-12-01T19:40:10.053Z,2.80
2022-12-01T19:42:58.485Z,2.80
2022-12-01T19:45:48.240Z,2.80
2022-12-01T19:48:37.258Z,2.80
2022-12-01T19:51:27.547Z,2.80
2022-12-01T19:54:17.731Z,2.80
2022-12-01T19:57:06.423Z,2.80
2022-12-01T19:59:54.733Z,2.80
2022-12-01T20:02:44.511Z,2.80
2022-12-01T20:05:33.331Z,2.80
2022-12-01T20:08:21.681Z,2.80
2022-12-01T20:11:11.037Z,2.80
2022-12-01T20:13:59.667Z,2.80
2022-12-01T20:16:48.117Z,2.80
2022-12-01T20:19:38.418Z,2.80
2022-12-01T20:22:26.762Z,2.80
2022-12-01T20:25:15.277Z,2.80
2022-12-01T20:28:03.944Z,2.80
2022-12-01T20:30:52.354Z,2.80
2022-12-01T20:33:41.210Z,2.80
2022-12-01T20:36:31.669Z,2.80
2022-12-01T20:39:20.665Z,2.80
2022-12-01T20:42:09.713Z,2.80
2022-12-01T20:44:59.300Z,2.70
2022-12-01T20:47:47.687Z,2.70
2022-12-01T20:50:36.028Z,2.70
2022-12-01T20:53:25.873Z,2.80
2022-12-01T20:56:16.507Z,2.70
2022-12-01T20:59:06.789Z,2.80
2022-12-01T21:01:55.441Z,2.70
2022-12-01T21:04:44.263Z,2.70
2022-12-01T21:07:34.866Z,2.70
2022-12-01T21:10:24.725Z,2.70
2022-12-01T21:13:37.261Z,2.70
2022-12-01T21:16:28.892Z,2.70
2022-12-01T21:19:23.288Z,2.60
2022-12-01T21:22:12.481Z,2.60
2022-12-01T21:25:07.604Z,2.60
2022-12-01T21:28:04.845Z,2.60
2022-12-01T21:31:00.750Z,2.70
2022-12-01T21:33:49.149Z,2.70
2022-12-01T21:36:37.611Z,2.70
2022-12-01T21:39:26.600Z,2.60
2022-12-01T21:42:17.917Z,2.70
2022-12-01T21:45:15.051Z,2.60
2022-12-01T21:48:15.274Z,2.60
2022-12-01T21:51:13.159Z,2.60
2022-12-01T21:54:03.256Z,2.60
2022-12-01T21:56:56.907Z,2.60
2022-12-01T21:59:45.286Z,2.60
2022-12-01T22:02:49.182Z,2.60
2022-12-01T22:05:40.469Z,2.60
2022-12-01T22:08:29.578Z,2.60
2022-12-01T22:11:20.880Z,2.60
2022-12-01T22:14:12.356Z,2.60
2022-12-01T22:17:02.289Z,2.60
2022-12-01T22:19:58.024Z,2.50
2022-12-01T22:22:46.398Z,2.50
2022-12-01T22:25:35.030Z,2.50
2022-12-01T22:28:25.554Z,2.50
2022-12-01T22:31:15.927Z,2.50
2022-12-01T22:34:05.458Z,2.60
2022-12-01T22:36:55.489Z,2.60
2022-12-01T22:39:43.894Z,2.60
2022-12-01T22:42:35.759Z,2.60
2022-12-01T22:45:26.118Z,2.60
2022-12-01T22:48:26.256Z,2.60
2022-12-01T22:51:37.655Z,2.60
2022-12-01T22:54:28.439Z,2.50
2022-12-01T22:57:31.166Z,2.50
2022-12-01T23:00:22.985Z,2.50
2022-12-01T23:03:13.132Z,2.50
2022-12-01T23:06:01.527Z,2.50
2022-12-01T23:08:49.824Z,2.50
2022-12-01T23:11:39.571Z,2.50
2022-12-01T23:14:28.847Z,2.50
2022-12-01T23:17:21.146Z,2.50
2022-12-01T23:20:29.682Z,2.50
2022-12-01T23:23:19.963Z,2.50
2022-12-01T23:26:09.563Z,2.50
2022-12-01T23:29:01.260Z,2.40
2022-12-01T23:31:50.711Z,2.40
2022-12-01T23:34:39.291Z,2.40
2022-12-01T23:37:38.768Z,2.40
2022-12-01T23:40:31.635Z,2.40
2022-12-01T23:43:25.251Z,2.40
2022-12-01T23:46:17.626Z,2.40
2022-12-01T23:49:12.121Z,2.50
2022-12-01T23:52:03.149Z,2.40
2022-12-01T23:54:51.691Z,2.40
2022-12-01T23:57:40.151Z,2.40
